Terminal Aerodrome Forecast
Issued by NWS Detroit/Pontiac, MI

Home | Current Version | Previous Version | Text Only | Print | Product List | Glossary On
Versions: 1 2 3 4 5 6 7 8 9 10 11 12 13 14 15 16 17 18 19 20 21 22 23 24 25 26
000
FTUS43 KDTX 280900 AAA
TAFDTW
TAF AMD
KDTW 280901Z 2809/2912 32010KT P6SM BKN015 OVC045
      TEMPO 2809/2813 SCT015 BKN045 OVC150
     FM281300 34013G20KT P6SM BKN025 OVC040
     FM281800 34013G20KT P6SM BKN040
     FM290000 30008KT P6SM SCT045
     FM290400 27004KT P6SM FEW045 BKN090=

USA.gov is the U.S. government's official web portal to all federal, state and local government web resources and services.